Time;durP1;ratioP1;P1;durP2;ratioP2;P2;SDS_P1;SDS_P2;PMS_P1;PMS_P2;Temp;Humidity;BMP_temperature;BMP_pressure;BME280_temperature;BME280_humidity;BME280_pressure;Samples;Min_cycle;Max_cycle;Signal;HPM_P1;HPM_P2
2023/10/03 00:00:49;;;;;;;;;;;;;;;18.72;100.00;98230.06;5117259;28;19924;-72
2023/10/03 00:03:17;;;;;;;;;;;;;;;18.70;100.00;98224.94;5118674;28;19931;-72
2023/10/03 00:05:45;;;;;;;;;;;;;;;18.73;100.00;98218.91;5120810;28;19916;-72
2023/10/03 00:08:13;;;;;;;;;;;;;;;18.73;100.00;98218.91;5124092;28;19938;-72
2023/10/03 00:10:40;;;;;;;;;;;;;;;18.74;100.00;98222.41;5117560;28;19912;-72
2023/10/03 00:13:08;;;;;;;;;;;;;;;18.71;100.00;98231.16;5117793;28;19924;-72
2023/10/03 00:15:36;;;;;;;;;;;;;;;18.68;100.00;98212.81;5119369;28;19924;-72
2023/10/03 00:18:03;;;;;;;;;;;;;;;18.68;100.00;98218.22;5119159;28;19924;-72
2023/10/03 00:20:31;;;;;;;;;;;;;;;18.70;100.00;98224.94;5113624;28;19932;-72
2023/10/03 00:22:58;;;;;;;;;;;;;;;18.65;100.00;98213.44;5117464;28;19921;-72
2023/10/03 00:25:25;;;;;;;;;;;;;;;18.58;100.00;98219.28;5119828;28;19931;-72
2023/10/03 00:27:53;;;;;;;;;;;;;;;18.55;100.00;98219.09;5100602;28;19928;-72
2023/10/03 00:30:20;;;;;;;;;;;;;;;18.57;100.00;98211.47;5118378;28;19924;-72
2023/10/03 00:32:47;;;;;;;;;;;;;;;18.60;100.00;98192.72;5114722;28;19983;-71
2023/10/03 00:35:15;;;;;;;;;;;;;;;18.60;100.00;98200.03;5115140;28;19928;-72
2023/10/03 00:37:45;;;;;;;;;;;;;;;18.60;100.00;98200.03;5118114;28;20026;-71
2023/10/03 00:40:18;;;;;;;;;;;;;;;18.55;100.00;98200.16;5117914;28;19928;-71
2023/10/03 00:42:45;;;;;;;;;;;;;;;18.58;100.00;98200.34;5119463;28;19930;-72
2023/10/03 00:45:12;;;;;;;;;;;;;;;18.60;100.00;98202.75;5122038;28;19923;-71
2023/10/03 00:47:38;;;;;;;;;;;;;;;18.59;100.00;98193.03;5118570;28;19931;-71
2023/10/03 00:50:06;;;;;;;;;;;;;;;18.57;100.00;98196.03;5118375;28;19928;-71
2023/10/03 00:52:32;;;;;;;;;;;;;;;18.51;100.00;98186.44;5121933;28;19927;-71
2023/10/03 00:55:00;;;;;;;;;;;;;;;18.51;100.00;98197.25;5116654;28;19924;-71
2023/10/03 00:57:27;;;;;;;;;;;;;;;18.52;100.00;98187.25;5121907;28;19926;-71
2023/10/03 00:59:56;;;;;;;;;;;;;;;18.34;100.00;98181.69;5102233;28;19972;-71
2023/10/03 01:02:23;;;;;;;;;;;;;;;18.01;100.00;98177.56;5117279;28;19924;-72
2023/10/03 01:04:49;;;;;;;;;;;;;;;17.98;100.00;98172.78;5120423;28;19936;-72
2023/10/03 01:07:16;;;;;;;;;;;;;;;18.09;100.00;98173.34;5130141;28;19963;-71
2023/10/03 01:09:42;;;;;;;;;;;;;;;18.12;100.00;98178.97;5118158;28;19945;-71
2023/10/03 01:12:11;;;;;;;;;;;;;;;18.17;100.00;98173.44;5119004;28;19924;-71
2023/10/03 01:14:39;;;;;;;;;;;;;;;18.21;100.00;98166.31;5121981;28;19935;-71
2023/10/03 01:17:07;;;;;;;;;;;;;;;18.22;100.00;98170.63;5121891;28;19924;-72
2023/10/03 01:19:34;;;;;;;;;;;;;;;18.10;100.00;98173.06;5121737;28;19932;-71
2023/10/03 01:22:02;;;;;;;;;;;;;;;18.16;100.00;98174.53;5119866;28;19924;-71
2023/10/03 01:24:30;;;;;;;;;;;;;;;18.19;100.00;98168.53;5126136;27;19923;-71
2023/10/03 01:26:57;;;;;;;;;;;;;;;18.21;100.00;98176.31;5119762;28;19946;-71
2023/10/03 01:29:23;;;;;;;;;;;;;;;18.20;100.00;98175.50;5121098;28;19931;-71
2023/10/03 01:31:51;;;;;;;;;;;;;;;18.19;100.00;98178.53;5121456;28;19924;-71
2023/10/03 01:34:17;;;;;;;;;;;;;;;18.14;100.00;98176.75;5121124;28;19924;-71
2023/10/03 01:36:47;;;;;;;;;;;;;;;18.09;100.00;98163.34;5095778;28;19924;-71
2023/10/03 01:39:14;;;;;;;;;;;;;;;18.05;100.00;98166.94;5116952;28;19924;-71
2023/10/03 01:41:42;;;;;;;;;;;;;;;18.01;100.00;98155.94;5120831;28;19979;-72
2023/10/03 01:44:09;;;;;;;;;;;;;;;18.03;100.00;98163.78;5121012;28;19931;-72
2023/10/03 01:46:38;;;;;;;;;;;;;;;18.08;100.00;98158.22;5120994;28;20542;-70
2023/10/03 01:49:05;;;;;;;;;;;;;;;18.11;100.00;98144.09;5116458;28;19999;-70
2023/10/03 01:51:31;;;;;;;;;;;;;;;18.15;100.00;98145.91;5124537;28;19931;-71
2023/10/03 01:53:57;;;;;;;;;;;;;;;18.11;100.00;98139.50;5117160;28;19979;-71
2023/10/03 01:56:24;;;;;;;;;;;;;;;18.10;100.00;98137.13;5113596;28;19924;-71
2023/10/03 01:58:54;;;;;;;;;;;;;;;18.10;100.00;98131.72;5126035;28;19924;-71
2023/10/03 02:01:21;;;;;;;;;;;;;;;18.04;100.00;98138.34;5115980;28;19924;-70
2023/10/03 02:03:50;;;;;;;;;;;;;;;18.03;100.00;98137.53;5120536;28;19924;-70
2023/10/03 02:06:16;;;;;;;;;;;;;;;18.04;100.00;98132.94;5120873;28;19927;-71
2023/10/03 02:08:43;;;;;;;;;;;;;;;18.02;100.00;98135.94;5120396;28;19928;-71
2023/10/03 02:11:11;;;;;;;;;;;;;;;18.03;100.00;98131.34;5119911;28;19941;-71
2023/10/03 02:13:38;;;;;;;;;;;;;;;18.04;100.00;98122.13;5115268;28;20390;-71
2023/10/03 02:16:07;;;;;;;;;;;;;;;17.96;100.00;98126.34;5117710;28;19924;-71
2023/10/03 02:18:35;;;;;;;;;;;;;;;17.93;100.00;98124.25;5120077;28;19993;-71
2023/10/03 02:21:03;;;;;;;;;;;;;;;17.90;100.00;98130.28;5120325;28;19924;-71
2023/10/03 02:23:32;;;;;;;;;;;;;;;17.92;100.00;98138.09;5123953;27;19923;-72
2023/10/03 02:26:05;;;;;;;;;;;;;;;17.92;100.00;98125.34;5123671;28;19946;-72
2023/10/03 02:28:32;;;;;;;;;;;;;;;17.95;100.00;98124.75;5116470;28;19920;-73
2023/10/03 02:31:01;;;;;;;;;;;;;;;17.96;100.00;98120.94;5117188;28;19967;-72
2023/10/03 02:33:28;;;;;;;;;;;;;;;17.94;100.00;98116.97;5120182;28;19986;-72
2023/10/03 02:35:56;;;;;;;;;;;;;;;17.88;100.00;98115.47;5121095;28;19924;-72
2023/10/03 02:38:25;;;;;;;;;;;;;;;17.82;100.00;98114.00;5120855;28;20140;-72
2023/10/03 02:40:52;;;;;;;;;;;;;;;17.83;100.00;98110.97;5119270;28;19924;-71
2023/10/03 02:43:19;;;;;;;;;;;;;;;17.85;100.00;98124.19;5116319;28;19924;-71
2023/10/03 02:45:46;;;;;;;;;;;;;;;17.77;100.00;98120.28;5120160;28;19924;-71
2023/10/03 02:48:15;;;;;;;;;;;;;;;17.65;100.00;98109.22;5128158;28;19950;-71
2023/10/03 02:50:44;;;;;;;;;;;;;;;17.34;100.00;98108.25;5116111;28;19927;-71
2023/10/03 02:53:12;;;;;;;;;;;;;;;17.16;100.00;98091.06;5116551;28;19959;-72
2023/10/03 02:55:40;;;;;;;;;;;;;;;17.22;100.00;98101.47;5120330;28;19992;-72
2023/10/03 02:58:06;;;;;;;;;;;;;;;17.32;100.00;98089.66;5119756;28;19920;-72
2023/10/03 03:00:35;;;;;;;;;;;;;;;17.36;100.00;98089.84;5119689;28;19923;-72
2023/10/03 03:03:02;;;;;;;;;;;;;;;17.44;100.00;98086.44;5117830;28;19924;-72
2023/10/03 03:05:35;;;;;;;;;;;;;;;17.55;100.00;98088.63;5115302;28;19924;-72
2023/10/03 03:08:10;;;;;;;;;;;;;;;17.47;100.00;98083.13;5117712;28;19926;-72
2023/10/03 03:10:38;;;;;;;;;;;;;;;17.59;100.00;98083.44;5119450;28;20011;-72
2023/10/03 03:13:05;;;;;;;;;;;;;;;17.61;100.00;98075.81;5119337;28;19947;-72
2023/10/03 03:15:32;;;;;;;;;;;;;;;17.64;100.00;98077.94;5119325;28;19924;-72
2023/10/03 03:17:58;;;;;;;;;;;;;;;17.68;100.00;98078.91;5117094;28;20370;-72
2023/10/03 03:20:27;;;;;;;;;;;;;;;17.64;100.00;98072.53;5097677;28;19975;-72
2023/10/03 03:22:59;;;;;;;;;;;;;;;17.62;100.00;98070.13;5116976;28;19960;-72
2023/10/03 03:25:36;;;;;;;;;;;;;;;17.52;100.00;98074.91;5121600;27;19957;-71
2023/10/03 03:28:04;;;;;;;;;;;;;;;17.58;100.00;98073.72;5118744;28;20682;-71
2023/10/03 03:30:36;;;;;;;;;;;;;;;17.63;100.00;98070.94;5118785;28;19924;-71
2023/10/03 03:33:06;;;;;;;;;;;;;;;17.66;100.00;98073.03;5099890;28;19927;-71
2023/10/03 03:35:37;;;;;;;;;;;;;;;17.45;100.00;98077.25;5115333;28;19931;-72
2023/10/03 03:38:05;;;;;;;;;;;;;;;17.41;100.00;98087.03;5115676;28;19928;-71
2023/10/03 03:40:34;;;;;;;;;;;;;;;17.33;100.00;98077.75;5127452;28;19957;-71
2023/10/03 03:43:02;;;;;;;;;;;;;;;16.96;100.00;98067.97;5117540;28;20025;-71
2023/10/03 03:45:28;;;;;;;;;;;;;;;16.82;100.00;98067.19;5114144;28;19920;-71
2023/10/03 03:47:55;;;;;;;;;;;;;;;16.80;100.00;98066.69;5117925;28;19928;-71
2023/10/03 03:50:22;;;;;;;;;;;;;;;16.73;100.00;98068.97;5119101;28;19927;-72
2023/10/03 03:52:49;;;;;;;;;;;;;;;16.64;100.00;98076.16;5125008;28;19969;-71
2023/10/03 03:55:17;;;;;;;;;;;;;;;17.05;100.00;98074.28;5120511;28;19970;-71
2023/10/03 03:57:45;;;;;;;;;;;;;;;17.02;100.00;98072.16;5114123;28;19930;-71
2023/10/03 04:00:14;;;;;;;;;;;;;;;16.95;100.00;98079.88;5115210;28;19928;-72
2023/10/03 04:02:40;;;;;;;;;;;;;;;16.92;100.00;98069.69;5096949;28;19924;-72
2023/10/03 04:05:07;;;;;;;;;;;;;;;16.47;100.00;98078.59;5118260;28;19920;-71
2023/10/03 04:07:34;;;;;;;;;;;;;;;16.36;100.00;98077.97;5118358;28;19951;-71
2023/10/03 04:10:01;;;;;;;;;;;;;;;16.26;100.00;98077.34;5116739;28;19946;-71
2023/10/03 04:12:28;;;;;;;;;;;;;;;16.29;100.00;98071.34;5114711;28;19995;-71
2023/10/03 04:14:55;;;;;;;;;;;;;;;16.35;100.00;98070.19;5116090;28;19950;-72
2023/10/03 04:17:22;;;;;;;;;;;;;;;16.35;100.00;98070.97;5118173;28;19924;-71
2023/10/03 04:19:49;;;;;;;;;;;;;;;16.19;100.00;98075.81;5118228;28;19947;-71
2023/10/03 04:22:16;;;;;;;;;;;;;;;16.22;100.00;98070.97;5119167;28;19923;-71
2023/10/03 04:24:42;;;;;;;;;;;;;;;16.19;100.00;98078.53;5108747;28;19928;-71
2023/10/03 04:27:09;;;;;;;;;;;;;;;15.82;100.00;98065.09;5118882;28;19925;-71
2023/10/03 04:29:37;;;;;;;;;;;;;;;15.62;100.00;98063.53;5118464;28;19977;-71
2023/10/03 04:32:04;;;;;;;;;;;;;;;15.73;100.00;98066.06;5116905;28;19922;-72
2023/10/03 04:34:32;;;;;;;;;;;;;;;15.71;100.00;98069.06;5115138;28;19931;-71
2023/10/03 04:36:59;;;;;;;;;;;;;;;15.83;100.00;98065.91;5115578;28;19928;-71
2023/10/03 04:39:26;;;;;;;;;;;;;;;15.86;100.00;98063.44;5117759;28;20662;-71
2023/10/03 04:41:53;;;;;;;;;;;;;;;15.90;100.00;98072.53;5117777;28;19920;-71
2023/10/03 04:44:20;;;;;;;;;;;;;;;15.93;100.00;98066.56;5113991;28;19978;-71
2023/10/03 04:46:46;;;;;;;;;;;;;;;16.00;100.00;98066.97;5115339;28;19928;-71
2023/10/03 04:49:15;;;;;;;;;;;;;;;16.07;100.00;98070.09;5113333;28;19955;-71
2023/10/03 04:51:45;;;;;;;;;;;;;;;16.14;100.00;98070.53;5114478;28;19924;-70
2023/10/03 04:54:12;;;;;;;;;;;;;;;16.08;100.00;98071.72;5115843;28;19924;-70
2023/10/03 04:56:38;;;;;;;;;;;;;;;15.94;100.00;98070.84;5118308;28;19924;-70
2023/10/03 04:59:05;;;;;;;;;;;;;;;15.70;100.00;98063.94;5117886;28;19924;-70
2023/10/03 05:01:32;;;;;;;;;;;;;;;15.76;100.00;98068.97;5118737;28;19956;-70
2023/10/03 05:03:59;;;;;;;;;;;;;;;15.96;100.00;98075.94;5118409;28;19925;-71
2023/10/03 05:06:27;;;;;;;;;;;;;;;15.94;100.00;98068.16;5117560;28;19923;-71
2023/10/03 05:08:53;;;;;;;;;;;;;;;16.02;100.00;98078.28;5114679;28;19923;-71
2023/10/03 05:11:20;;;;;;;;;;;;;;;16.24;100.00;98082.22;5113859;28;19935;-71
2023/10/03 05:13:46;;;;;;;;;;;;;;;16.37;100.00;98081.47;5116853;28;19932;-71
2023/10/03 05:16:14;;;;;;;;;;;;;;;16.41;100.00;98079.78;5117551;28;19958;-70
2023/10/03 05:18:42;;;;;;;;;;;;;;;16.44;100.00;98069.19;5115590;28;19931;-70
2023/10/03 05:21:08;;;;;;;;;;;;;;;16.28;100.00;98073.25;5116892;28;19988;-70
2023/10/03 05:23:36;;;;;;;;;;;;;;;16.35;100.00;98068.28;5115089;28;19990;-70
2023/10/03 05:26:02;;;;;;;;;;;;;;;16.15;100.00;98072.13;5096793;28;19981;-71
2023/10/03 05:28:29;;;;;;;;;;;;;;;16.05;100.00;98061.53;5119422;28;20350;-71
2023/10/03 05:30:58;;;;;;;;;;;;;;;16.26;100.00;98067.38;5121130;28;19979;-71
2023/10/03 05:33:24;;;;;;;;;;;;;;;16.23;100.00;98067.97;5121069;28;19923;-71
2023/10/03 05:35:50;;;;;;;;;;;;;;;16.26;100.00;98066.56;5119462;28;19924;-71
2023/10/03 05:38:18;;;;;;;;;;;;;;;16.33;100.00;98077.78;5117172;28;19935;-71
2023/10/03 05:40:47;;;;;;;;;;;;;;;16.52;100.00;98076.63;5120499;28;20392;-72
2023/10/03 05:43:13;;;;;;;;;;;;;;;16.58;100.00;98080.06;5121307;28;19924;-71
2023/10/03 05:45:40;;;;;;;;;;;;;;;16.56;100.00;98084.94;5114450;28;19924;-72
2023/10/03 05:48:06;;;;;;;;;;;;;;;16.72;100.00;98089.75;5120773;28;19924;-72
2023/10/03 05:50:34;;;;;;;;;;;;;;;16.83;100.00;98089.56;5104580;28;19934;-72
2023/10/03 05:53:01;;;;;;;;;;;;;;;16.78;100.00;98084.25;5122089;28;19970;-72
2023/10/03 05:55:27;;;;;;;;;;;;;;;16.86;100.00;98081.69;5122299;28;19962;-72
2023/10/03 05:57:55;;;;;;;;;;;;;;;16.48;100.00;98074.81;5118831;28;19923;-72
2023/10/03 06:00:21;;;;;;;;;;;;;;;16.59;100.00;98078.94;5116575;28;19920;-72
2023/10/03 06:02:48;;;;;;;;;;;;;;;16.20;100.00;98077.44;5121433;28;19928;-72
2023/10/03 06:05:15;;;;;;;;;;;;;;;16.13;100.00;98079.69;5121594;28;19946;-70
2023/10/03 06:07:42;;;;;;;;;;;;;;;15.74;100.00;98076.56;5120754;28;20439;-71
2023/10/03 06:10:10;;;;;;;;;;;;;;;15.49;100.00;98076.91;5120073;28;19923;-72
2023/10/03 06:12:37;;;;;;;;;;;;;;;15.23;100.00;98083.69;5116307;28;19928;-72
2023/10/03 06:15:05;;;;;;;;;;;;;;;15.25;100.00;98085.00;5117994;28;19926;-70
2023/10/03 06:17:32;;;;;;;;;;;;;;;15.01;100.00;98085.00;5120395;28;19977;-71
2023/10/03 06:19:58;;;;;;;;;;;;;;;15.32;100.00;98084.66;5120362;28;19927;-71
2023/10/03 06:22:24;;;;;;;;;;;;;;;15.45;100.00;98075.84;5097295;28;19990;-70
2023/10/03 06:24:53;;;;;;;;;;;;;;;15.49;100.00;98080.41;5123051;28;19928;-70
2023/10/03 06:27:19;;;;;;;;;;;;;;;15.10;100.00;98085.97;5116357;28;19939;-70
2023/10/03 06:29:47;;;;;;;;;;;;;;;15.40;100.00;98089.38;5119864;28;19924;-70
2023/10/03 06:32:14;;;;;;;;;;;;;;;15.21;100.00;98089.34;5122159;28;19929;-70
2023/10/03 06:34:41;;;;;;;;;;;;;;;15.26;100.00;98091.16;5103054;28;19967;-70
2023/10/03 06:37:07;;;;;;;;;;;;;;;15.05;100.00;98091.44;5121969;28;19946;-70
2023/10/03 06:39:34;;;;;;;;;;;;;;;15.54;100.00;98090.28;5121818;28;19932;-70
2023/10/03 06:42:00;;;;;;;;;;;;;;;15.15;100.00;98087.81;5121079;28;19946;-70
2023/10/03 06:44:27;;;;;;;;;;;;;;;15.11;100.00;98095.66;5120232;28;19928;-70
2023/10/03 06:46:53;;;;;;;;;;;;;;;15.81;100.00;98100.44;5117314;28;19931;-70
2023/10/03 06:49:23;;;;;;;;;;;;;;;15.81;100.00;98101.22;5116408;28;19924;-70
2023/10/03 06:51:50;;;;;;;;;;;;;;;15.35;100.00;98094.84;5119189;28;19930;-70
2023/10/03 06:54:17;;;;;;;;;;;;;;;15.98;100.00;98103.38;5118378;28;20011;-70
2023/10/03 06:56:44;;;;;;;;;;;;;;;15.41;100.00;98093.69;5119822;28;19991;-70
2023/10/03 06:59:11;;;;;;;;;;;;;;;16.16;100.00;98089.88;5114771;28;19924;-70
2023/10/03 07:01:37;;;;;;;;;;;;;;;15.44;100.00;98098.50;5115278;28;20733;-70
2023/10/03 07:04:04;;;;;;;;;;;;;;;15.77;100.00;98086.75;5117363;28;19928;-71
2023/10/03 07:06:33;;;;;;;;;;;;;;;15.64;100.00;98088.28;5119299;28;19924;-70
2023/10/03 07:09:00;;;;;;;;;;;;;;;15.69;100.00;98092.00;5119645;28;19932;-70
2023/10/03 07:11:27;;;;;;;;;;;;;;;15.35;100.00;98095.63;5120413;28;19931;-70
2023/10/03 07:13:54;;;;;;;;;;;;;;;15.28;100.00;98092.50;5117912;28;19924;-70
2023/10/03 07:16:20;;;;;;;;;;;;;;;15.98;100.00;98098.00;5116479;28;19954;-71
2023/10/03 07:18:47;;;;;;;;;;;;;;;15.79;100.00;98084.53;5118675;28;19971;-71
2023/10/03 07:21:15;;;;;;;;;;;;;;;15.86;100.00;98084.19;5119322;28;19931;-72
2023/10/03 07:23:43;;;;;;;;;;;;;;;16.15;100.00;98090.19;5116413;28;19935;-70
2023/10/03 07:26:09;;;;;;;;;;;;;;;15.53;100.00;98075.25;5121798;28;19927;-71
2023/10/03 07:28:38;;;;;;;;;;;;;;;15.92;100.00;98083.81;5116814;28;19927;-71
2023/10/03 07:31:08;;;;;;;;;;;;;;;16.05;100.00;98069.59;5126548;28;19924;-71
2023/10/03 07:33:34;;;;;;;;;;;;;;;15.86;100.00;98086.88;5119710;28;19946;-71
2023/10/03 07:36:04;;;;;;;;;;;;;;;15.88;100.00;98082.78;5117506;28;19920;-71
2023/10/03 07:38:30;;;;;;;;;;;;;;;15.81;100.00;98087.75;5113956;28;19946;-71
2023/10/03 07:40:58;;;;;;;;;;;;;;;15.84;100.00;98089.06;5117812;28;19960;-72
2023/10/03 07:43:24;;;;;;;;;;;;;;;16.00;100.00;98083.13;5118733;28;19924;-71
2023/10/03 07:45:51;;;;;;;;;;;;;;;16.04;100.00;98084.16;5118598;28;19924;-71
2023/10/03 07:48:17;;;;;;;;;;;;;;;16.18;100.00;98095.00;5118571;28;19928;-71
2023/10/03 07:50:45;;;;;;;;;;;;;;;16.55;100.00;98086.03;5113666;28;19945;-71
2023/10/03 07:53:12;;;;;;;;;;;;;;;16.44;100.00;98088.06;5115301;28;19930;-71
2023/10/03 07:55:39;;;;;;;;;;;;;;;16.53;100.00;98077.41;5115196;28;19928;-71
2023/10/03 07:58:07;;;;;;;;;;;;;;;16.52;100.00;98078.50;5118580;28;19923;-71
2023/10/03 08:00:34;;;;;;;;;;;;;;;16.25;100.00;98075.75;5118933;28;19924;-71
2023/10/03 08:03:04;;;;;;;;;;;;;;;16.24;100.00;98074.97;5116486;28;19987;-71
2023/10/03 08:05:31;;;;;;;;;;;;;;;16.25;100.00;98079.22;5114799;28;19924;-71
2023/10/03 08:07:57;;;;;;;;;;;;;;;16.22;100.00;98079.03;5115770;28;19928;-72
2023/10/03 08:10:28;;;;;;;;;;;;;;;16.31;100.00;98083.44;5118336;28;19924;-71
2023/10/03 08:12:58;;;;;;;;;;;;;;;16.47;100.00;98089.38;5117867;28;20405;-71
2023/10/03 08:15:31;;;;;;;;;;;;;;;16.60;100.00;98088.63;5118702;28;19924;-72
2023/10/03 08:17:58;;;;;;;;;;;;;;;16.65;100.00;98086.63;5117660;28;19924;-72
2023/10/03 08:20:25;;;;;;;;;;;;;;;16.65;100.00;98092.03;5120729;28;19924;-71
2023/10/03 08:22:52;;;;;;;;;;;;;;;16.66;100.00;98106.31;5119006;28;19924;-72
2023/10/03 08:25:19;;;;;;;;;;;;;;;16.77;100.00;98105.06;5128191;28;19949;-73
2023/10/03 08:27:46;;;;;;;;;;;;;;;16.71;100.00;98098.16;5114109;28;19935;-71
2023/10/03 08:30:25;;;;;;;;;;;;;;;16.72;100.00;98097.03;5114942;28;19930;-71
2023/10/03 08:32:55;;;;;;;;;;;;;;;16.84;100.00;98097.34;5117364;28;19931;-71
2023/10/03 08:35:34;;;;;;;;;;;;;;;16.91;100.00;98097.75;5117945;28;19920;-72
2023/10/03 08:38:04;;;;;;;;;;;;;;;17.04;100.00;98093.47;5117979;28;19924;-71
2023/10/03 08:40:31;;;;;;;;;;;;;;;17.10;100.00;98093.06;5117996;28;19923;-73
2023/10/03 08:43:02;;;;;;;;;;;;;;;17.19;100.00;98085.88;5115636;28;19928;-72
2023/10/03 08:45:30;;;;;;;;;;;;;;;17.30;100.00;98091.06;5114617;28;20550;-72
2023/10/03 08:48:05;;;;;;;;;;;;;;;17.41;100.00;98081.63;5115957;28;19920;-72
2023/10/03 08:50:36;;;;;;;;;;;;;;;17.52;100.00;98081.09;5118008;28;19973;-72
2023/10/03 08:53:15;;;;;;;;;;;;;;;17.56;100.00;98084.84;5117923;28;19974;-72
2023/10/03 08:55:43;;;;;;;;;;;;;;;17.67;100.00;98088.91;5112369;28;19930;-72
2023/10/03 08:58:13;;;;;;;;;;;;;;;17.73;100.00;98084.22;5117191;28;19924;-71
2023/10/03 09:00:42;;;;;;;;;;;;;;;17.81;100.00;98086.16;5114238;28;19928;-72
2023/10/03 09:03:12;;;;;;;;;;;;;;;17.92;100.00;98084.81;5116713;28;19980;-72
2023/10/03 09:05:40;;;;;;;;;;;;;;;18.03;100.00;98083.50;5129903;28;20010;-72
2023/10/03 09:08:08;;;;;;;;;;;;;;;18.13;100.00;98080.56;5120274;28;19946;-71
2023/10/03 09:10:42;;;;;;;;;;;;;;;18.29;100.00;98087.16;5116570;28;19986;-70
2023/10/03 09:13:16;;;;;;;;;;;;;;;18.36;100.00;98081.31;5119100;28;19935;-71
2023/10/03 09:15:43;;;;;;;;;;;;;;;18.50;100.00;98092.09;5120049;28;19920;-71
2023/10/03 09:18:15;;;;;;;;;;;;;;;18.65;100.00;98089.00;5121715;28;19931;-72
2023/10/03 09:20:42;;;;;;;;;;;;;;;18.32;100.00;98091.16;5121598;28;19924;-72
2023/10/03 09:23:09;;;;;;;;;;;;;;;18.30;100.00;98087.97;5120616;28;19928;-72
2023/10/03 09:25:38;;;;;;;;;;;;;;;18.02;100.00;98081.88;5126222;28;19963;-72
2023/10/03 09:28:04;;;;;;;;;;;;;;;18.07;100.00;98080.97;5117980;28;19928;-72
2023/10/03 09:30:37;;;;;;;;;;;;;;;17.97;100.00;98083.91;5121145;28;19950;-72
2023/10/03 09:33:05;;;;;;;;;;;;;;;18.05;100.00;98078.56;5127587;28;19924;-71
2023/10/03 09:35:33;;;;;;;;;;;;;;;18.21;100.00;98063.59;5116108;28;19924;-72
2023/10/03 09:38:04;;;;;;;;;;;;;;;18.27;100.00;98073.16;5119565;28;19931;-73
2023/10/03 09:40:47;;;;;;;;;;;;;;;18.39;100.00;98074.50;5120491;28;20015;-72
2023/10/03 09:43:16;;;;;;;;;;;;;;;18.37;100.00;98072.13;5121269;28;20041;-71
2023/10/03 09:45:45;;;;;;;;;;;;;;;18.44;100.00;98074.38;5120940;28;19992;-72
2023/10/03 09:48:12;;;;;;;;;;;;;;;18.56;100.00;98070.03;5120275;28;19924;-72
2023/10/03 09:50:51;;;;;;;;;;;;;;;18.77;100.00;98070.28;5117307;28;19927;-72
2023/10/03 09:53:18;;;;;;;;;;;;;;;18.96;100.00;98057.31;5100689;28;19920;-72
2023/10/03 09:55:46;;;;;;;;;;;;;;;19.21;100.00;98066.63;5101979;28;19923;-71
2023/10/03 09:58:14;;;;;;;;;;;;;;;19.40;100.00;98059.81;5120719;28;20023;-72
2023/10/03 10:00:50;;;;;;;;;;;;;;;19.55;100.00;98063.19;5116606;28;19966;-72
2023/10/03 10:03:19;;;;;;;;;;;;;;;19.74;100.00;98056.38;5115648;28;19924;-72
2023/10/03 10:05:53;;;;;;;;;;;;;;;20.01;100.00;98054.44;5120272;28;19924;-72
2023/10/03 10:08:27;;;;;;;;;;;;;;;20.12;100.00;98051.06;5120188;28;19928;-73
2023/10/03 10:11:07;;;;;;;;;;;;;;;20.28;100.00;98044.06;5121215;28;19947;-72
2023/10/03 10:13:36;;;;;;;;;;;;;;;20.60;100.00;98041.91;5120914;28;19939;-72
2023/10/03 10:16:11;;;;;;;;;;;;;;;20.86;100.00;98039.84;5121054;28;19951;-72
2023/10/03 10:18:57;;;;;;;;;;;;;;;20.87;100.00;98033.31;5119248;28;19943;-72
2023/10/03 10:21:26;;;;;;;;;;;;;;;21.18;100.00;98036.53;5116790;28;19923;-72
2023/10/03 10:24:13;;;;;;;;;;;;;;;21.34;100.00;98026.69;5127409;28;19920;-72
2023/10/03 10:26:40;;;;;;;;;;;;;;;21.27;100.00;98014.75;5097607;28;19924;-70
2023/10/03 10:29:08;;;;;;;;;;;;;;;21.36;100.00;98021.72;5121398;28;20595;-71
2023/10/03 10:31:42;;;;;;;;;;;;;;;21.40;100.00;98022.66;5121462;28;19930;-72
2023/10/03 10:34:32;;;;;;;;;;;;;;;21.70;100.00;98019.88;5121129;28;19959;-72
2023/10/03 10:37:03;;;;;;;;;;;;;;;21.86;100.00;98021.66;5121895;28;19924;-72
2023/10/03 10:39:48;;;;;;;;;;;;;;;21.90;100.00;98006.31;5120893;28;19980;-72
2023/10/03 10:42:16;;;;;;;;;;;;;;;22.01;100.00;98004.75;5120210;28;19931;-72
2023/10/03 10:44:57;;;;;;;;;;;;;;;21.95;100.00;98000.63;5119337;28;19947;-72
2023/10/03 10:47:24;;;;;;;;;;;;;;;22.17;100.00;98007.63;5120772;28;19924;-72
2023/10/03 10:49:58;;;;;;;;;;;;;;;22.26;100.00;98000.16;5116791;28;19957;-72
2023/10/03 10:52:26;;;;;;;;;;;;;;;22.24;100.00;97994.28;5116416;28;19947;-72
2023/10/03 10:54:52;;;;;;;;;;;;;;;22.28;100.00;97988.97;5126627;28;19928;-71
2023/10/03 10:57:21;;;;;;;;;;;;;;;22.34;100.00;97988.41;5119994;28;19946;-71
2023/10/03 10:59:48;;;;;;;;;;;;;;;22.35;100.00;97979.09;5119758;28;19920;-71
2023/10/03 11:02:15;;;;;;;;;;;;;;;22.43;100.00;97982.88;5119742;28;19945;-72
2023/10/03 11:04:41;;;;;;;;;;;;;;;22.47;100.00;97990.00;5121370;28;19924;-72
2023/10/03 11:07:08;;;;;;;;;;;;;;;22.52;100.00;97973.47;5119761;28;19920;-72
2023/10/03 11:09:37;;;;;;;;;;;;;;;22.61;100.00;97970.63;5119908;28;19928;-72
2023/10/03 11:12:04;;;;;;;;;;;;;;;22.63;100.00;97967.56;5118296;28;19974;-72
2023/10/03 11:14:33;;;;;;;;;;;;;;;22.69;100.00;97958.06;5116205;28;19924;-72
2023/10/03 11:17:00;;;;;;;;;;;;;;;22.73;100.00;97961.69;5116814;28;19928;-72
2023/10/03 11:19:27;;;;;;;;;;;;;;;22.73;100.00;97946.16;5119546;28;20014;-72
2023/10/03 11:21:53;;;;;;;;;;;;;;;22.80;100.00;97954.56;5119573;28;19946;-72
2023/10/03 11:24:20;;;;;;;;;;;;;;;22.86;100.00;97944.22;5120467;28;19931;-72
2023/10/03 11:26:49;;;;;;;;;;;;;;;22.94;100.00;97940.56;5120407;28;19931;-72
2023/10/03 11:29:17;;;;;;;;;;;;;;;22.89;100.00;97938.09;5113396;28;19925;-72
2023/10/03 11:31:45;;;;;;;;;;;;;;;23.00;100.00;97926.38;5119164;28;19932;-72
2023/10/03 11:34:28;;;;;;;;;;;;;;;23.02;100.00;97924.13;5127410;28;19919;-72
2023/10/03 11:36:54;;;;;;;;;;;;;;;23.01;100.00;97924.47;5124704;28;19945;-72
2023/10/03 11:39:23;;;;;;;;;;;;;;;23.00;100.00;97925.59;5115425;28;19924;-72
2023/10/03 11:41:51;;;;;;;;;;;;;;;22.99;100.00;97910.41;5118421;28;19992;-72
2023/10/03 11:44:18;;;;;;;;;;;;;;;23.02;100.00;97901.53;5118903;28;19966;-72
2023/10/03 11:46:44;;;;;;;;;;;;;;;23.04;100.00;97902.78;5118884;28;19967;-72
2023/10/03 11:49:11;;;;;;;;;;;;;;;23.12;100.00;97890.13;5113624;28;19924;-72
2023/10/03 11:51:38;;;;;;;;;;;;;;;23.10;100.00;97886.97;5114821;28;19966;-72
2023/10/03 11:54:08;;;;;;;;;;;;;;;23.24;100.00;97892.06;5124823;28;19986;-72
2023/10/03 11:56:39;;;;;;;;;;;;;;;23.24;100.00;97883.88;5115873;28;19935;-72
2023/10/03 11:59:07;;;;;;;;;;;;;;;23.43;100.00;97886.78;5119417;28;19924;-72
2023/10/03 12:01:35;;;;;;;;;;;;;;;23.22;100.00;97886.94;5101364;28;19927;-72
2023/10/03 12:04:02;;;;;;;;;;;;;;;23.26;100.00;97879.66;5118822;28;19924;-72
2023/10/03 12:06:30;;;;;;;;;;;;;;;23.27;100.00;97886.72;5114916;28;19931;-71
2023/10/03 12:08:57;;;;;;;;;;;;;;;23.24;100.00;97873.75;5117057;28;19958;-72
2023/10/03 12:11:24;;;;;;;;;;;;;;;23.18;100.00;97879.81;5125418;28;19963;-71
2023/10/03 12:13:50;;;;;;;;;;;;;;;23.22;100.00;97881.50;5116410;28;19934;-72
2023/10/03 12:16:20;;;;;;;;;;;;;;;23.18;100.00;97872.41;5115205;28;19987;-71
2023/10/03 12:18:47;;;;;;;;;;;;;;;23.15;100.00;97875.81;5118245;28;19946;-71
2023/10/03 12:21:14;;;;;;;;;;;;;;;23.02;100.00;97861.47;5118690;28;19924;-72
2023/10/03 12:23:40;;;;;;;;;;;;;;;22.97;100.00;97860.91;5119320;28;19955;-72
2023/10/03 12:26:07;;;;;;;;;;;;;;;22.97;100.00;97858.19;5119257;28;19972;-71
2023/10/03 12:28:34;;;;;;;;;;;;;;;22.85;100.00;97855.50;5119749;28;19932;-72
2023/10/03 12:31:00;;;;;;;;;;;;;;;22.87;100.00;97847.78;5118909;28;19980;-73
2023/10/03 12:33:30;;;;;;;;;;;;;;;22.74;100.00;97851.66;5118529;28;19959;-73
2023/10/03 12:35:56;;;;;;;;;;;;;;;23.01;100.00;97850.91;5116066;28;19928;-72
2023/10/03 12:38:23;;;;;;;;;;;;;;;23.12;100.00;97841.91;5120075;28;19931;-72
2023/10/03 12:40:51;;;;;;;;;;;;;;;23.26;100.00;97838.78;5122975;28;19924;-72